sensor_id;sensor_type;location;lat;lon;timestamp;pressure;altitude;pressure_sealevel;temperature;humidity
7180;BME280;3631;42.152;24.756;2023-03-12T00:01:11;98302.22;;;9.24;92.17
7180;BME280;3631;42.152;24.756;2023-03-12T00:03:39;98272.59;;;9.11;90.52
7180;BME280;3631;42.152;24.756;2023-03-12T00:06:07;98292.72;;;9.25;88.54
7180;BME280;3631;42.152;24.756;2023-03-12T00:08:34;98302.22;;;9.24;85.91
7180;BME280;3631;42.152;24.756;2023-03-12T00:11:05;98310.06;;;9.23;87.29
7180;BME280;3631;42.152;24.756;2023-03-12T00:13:32;98317.03;;;9.21;87.44
7180;BME280;3631;42.152;24.756;2023-03-12T00:16:03;98284.38;;;8.98;86.54
7180;BME280;3631;42.152;24.756;2023-03-12T00:18:30;98318.28;;;9.12;87.66
7180;BME280;3631;42.152;24.756;2023-03-12T00:20:58;98321.06;;;9.07;91.38
7180;BME280;3631;42.152;24.756;2023-03-12T00:23:25;98317.72;;;9.04;94.30
7180;BME280;3631;42.152;24.756;2023-03-12T00:25:52;98322.16;;;9.02;95.92
7180;BME280;3631;42.152;24.756;2023-03-12T00:28:19;98314.69;;;8.94;96.97
7180;BME280;3631;42.152;24.756;2023-03-12T00:30:46;98315.66;;;8.92;96.33
7180;BME280;3631;42.152;24.756;2023-03-12T00:33:13;98327.06;;;8.88;94.80
7180;BME280;3631;42.152;24.756;2023-03-12T00:35:40;98324.59;;;8.85;91.68
7180;BME280;3631;42.152;24.756;2023-03-12T00:38:08;98320.38;;;8.82;93.20
7180;BME280;3631;42.152;24.756;2023-03-12T00:40:35;98315.69;;;8.70;96.09
7180;BME280;3631;42.152;24.756;2023-03-12T00:43:03;98309.88;;;8.65;96.19
7180;BME280;3631;42.152;24.756;2023-03-12T00:45:30;98328.03;;;8.63;95.12
7180;BME280;3631;42.152;24.756;2023-03-12T00:47:57;98317.88;;;8.59;95.21
7180;BME280;3631;42.152;24.756;2023-03-12T00:50:24;98310.19;;;8.57;95.63
7180;BME280;3631;42.152;24.756;2023-03-12T00:52:51;98305.13;;;8.54;94.94
7180;BME280;3631;42.152;24.756;2023-03-12T00:55:20;98302.06;;;8.45;95.70
7180;BME280;3631;42.152;24.756;2023-03-12T00:57:47;98281.38;;;8.23;95.31
7180;BME280;3631;42.152;24.756;2023-03-12T01:00:14;98317.88;;;8.37;94.29
7180;BME280;3631;42.152;24.756;2023-03-12T01:02:41;98317.31;;;8.29;93.82
7180;BME280;3631;42.152;24.756;2023-03-12T01:05:11;98333.59;;;8.31;93.50
7180;BME280;3631;42.152;24.756;2023-03-12T01:07:38;98328.59;;;8.26;91.96
7180;BME280;3631;42.152;24.756;2023-03-12T01:10:06;98335.91;;;8.15;91.34
7180;BME280;3631;42.152;24.756;2023-03-12T01:12:35;98350.81;;;8.09;91.81
7180;BME280;3631;42.152;24.756;2023-03-12T01:15:02;98335.38;;;8.07;90.81
7180;BME280;3631;42.152;24.756;2023-03-12T01:17:29;98341.28;;;8.11;89.53
7180;BME280;3631;42.152;24.756;2023-03-12T01:19:56;98331.50;;;7.95;89.03
7180;BME280;3631;42.152;24.756;2023-03-12T01:22:23;98342.84;;;7.91;88.61
7180;BME280;3631;42.152;24.756;2023-03-12T01:24:50;98341.28;;;7.87;87.36
7180;BME280;3631;42.152;24.756;2023-03-12T01:27:17;98344.22;;;7.78;88.33
7180;BME280;3631;42.152;24.756;2023-03-12T01:29:46;98342.63;;;7.74;88.61
7180;BME280;3631;42.152;24.756;2023-03-12T01:32:13;98346.19;;;7.70;88.26
7180;BME280;3631;42.152;24.756;2023-03-12T01:34:42;98351.94;;;7.55;87.85
7180;BME280;3631;42.152;24.756;2023-03-12T01:37:09;98358.94;;;7.51;87.90
7180;BME280;3631;42.152;24.756;2023-03-12T01:39:36;98358.84;;;7.54;87.17
7180;BME280;3631;42.152;24.756;2023-03-12T01:42:03;98375.22;;;7.53;87.75
7180;BME280;3631;42.152;24.756;2023-03-12T01:44:30;98374.31;;;7.54;88.48
7180;BME280;3631;42.152;24.756;2023-03-12T01:46:58;98374.03;;;7.62;86.59
7180;BME280;3631;42.152;24.756;2023-03-12T01:49:27;98377.66;;;7.56;86.86
7180;BME280;3631;42.152;24.756;2023-03-12T01:51:58;98380.91;;;7.63;86.33
7180;BME280;3631;42.152;24.756;2023-03-12T01:54:31;98404.41;;;7.55;86.79
7180;BME280;3631;42.152;24.756;2023-03-12T01:57:00;98394.38;;;7.46;87.85
7180;BME280;3631;42.152;24.756;2023-03-12T01:59:30;98417.19;;;7.58;87.93
7180;BME280;3631;42.152;24.756;2023-03-12T02:02:00;98417.25;;;7.57;86.62
7180;BME280;3631;42.152;24.756;2023-03-12T02:04:27;98400.28;;;7.50;86.76
7180;BME280;3631;42.152;24.756;2023-03-12T02:07:01;98426.00;;;7.53;87.20
7180;BME280;3631;42.152;24.756;2023-03-12T02:09:30;98430.28;;;7.54;86.87
7180;BME280;3631;42.152;24.756;2023-03-12T02:11:58;98413.25;;;7.48;86.41
7180;BME280;3631;42.152;24.756;2023-03-12T02:14:25;98439.09;;;7.47;86.28
7180;BME280;3631;42.152;24.756;2023-03-12T02:16:52;98444.63;;;7.36;85.11
7180;BME280;3631;42.152;24.756;2023-03-12T02:19:26;98451.56;;;7.34;85.74
7180;BME280;3631;42.152;24.756;2023-03-12T02:21:56;98438.75;;;7.33;85.06
7180;BME280;3631;42.152;24.756;2023-03-12T02:24:28;98456.69;;;7.36;85.64
7180;BME280;3631;42.152;24.756;2023-03-12T02:26:58;98461.06;;;7.34;85.37
7180;BME280;3631;42.152;24.756;2023-03-12T02:29:27;98459.44;;;7.31;85.09
7180;BME280;3631;42.152;24.756;2023-03-12T02:31:56;98462.16;;;7.26;84.01
7180;BME280;3631;42.152;24.756;2023-03-12T02:34:25;98467.53;;;7.20;82.85
7180;BME280;3631;42.152;24.756;2023-03-12T02:36:51;98483.06;;;7.19;82.78
7180;BME280;3631;42.152;24.756;2023-03-12T02:39:18;98477.19;;;7.14;83.26
7180;BME280;3631;42.152;24.756;2023-03-12T02:41:48;98491.84;;;7.12;81.94
7180;BME280;3631;42.152;24.756;2023-03-12T02:44:20;98496.19;;;7.11;82.38
7180;BME280;3631;42.152;24.756;2023-03-12T02:46:50;98488.44;;;7.11;83.65
7180;BME280;3631;42.152;24.756;2023-03-12T02:49:19;98496.13;;;7.13;82.91
7180;BME280;3631;42.152;24.756;2023-03-12T02:51:46;98495.34;;;7.11;82.21
7180;BME280;3631;42.152;24.756;2023-03-12T02:54:16;98500.66;;;7.06;81.61
7180;BME280;3631;42.152;24.756;2023-03-12T02:56:43;98501.78;;;6.98;81.97
7180;BME280;3631;42.152;24.756;2023-03-12T02:59:10;98508.72;;;6.96;82.25
7180;BME280;3631;42.152;24.756;2023-03-12T03:01:40;98503.69;;;6.91;83.01
7180;BME280;3631;42.152;24.756;2023-03-12T03:04:08;98510.50;;;6.93;81.82
7180;BME280;3631;42.152;24.756;2023-03-12T03:06:37;98515.91;;;6.86;82.74
7180;BME280;3631;42.152;24.756;2023-03-12T03:09:05;98521.00;;;6.87;81.96
7180;BME280;3631;42.152;24.756;2023-03-12T03:11:32;98528.84;;;6.84;82.12
7180;BME280;3631;42.152;24.756;2023-03-12T03:13:59;98533.22;;;6.81;82.58
7180;BME280;3631;42.152;24.756;2023-03-12T03:16:27;98535.03;;;6.77;82.62
7180;BME280;3631;42.152;24.756;2023-03-12T03:18:56;98539.41;;;6.75;82.94
7180;BME280;3631;42.152;24.756;2023-03-12T03:21:23;98542.13;;;6.71;82.96
7180;BME280;3631;42.152;24.756;2023-03-12T03:23:50;98541.34;;;6.67;83.06
7180;BME280;3631;42.152;24.756;2023-03-12T03:26:20;98543.78;;;6.73;83.19
7180;BME280;3631;42.152;24.756;2023-03-12T03:28:47;98553.28;;;6.71;83.47
7180;BME280;3631;42.152;24.756;2023-03-12T03:31:14;98555.00;;;6.71;83.04
7180;BME280;3631;42.152;24.756;2023-03-12T03:33:42;98551.53;;;6.72;83.68
7180;BME280;3631;42.152;24.756;2023-03-12T03:36:11;98555.78;;;6.74;83.01
7180;BME280;3631;42.152;24.756;2023-03-12T03:38:40;98569.69;;;6.69;83.52
7180;BME280;3631;42.152;24.756;2023-03-12T03:41:07;98578.28;;;6.68;83.77
7180;BME280;3631;42.152;24.756;2023-03-12T03:43:34;98574.75;;;6.72;82.65
7180;BME280;3631;42.152;24.756;2023-03-12T03:46:02;98575.75;;;6.66;83.08
7180;BME280;3631;42.152;24.756;2023-03-12T03:48:30;98579.28;;;6.64;83.46
7180;BME280;3631;42.152;24.756;2023-03-12T03:50:58;98591.38;;;6.62;82.63
7180;BME280;3631;42.152;24.756;2023-03-12T03:53:27;98588.94;;;6.55;82.18
7180;BME280;3631;42.152;24.756;2023-03-12T03:55:54;98585.47;;;6.56;82.39
7180;BME280;3631;42.152;24.756;2023-03-12T03:58:21;98556.84;;;6.36;82.72
7180;BME280;3631;42.152;24.756;2023-03-12T04:00:48;98583.06;;;6.52;81.60
7180;BME280;3631;42.152;24.756;2023-03-12T04:03:15;98589.91;;;6.53;81.87
7180;BME280;3631;42.152;24.756;2023-03-12T04:05:44;98583.91;;;6.52;81.71
7180;BME280;3631;42.152;24.756;2023-03-12T04:08:12;98595.16;;;6.48;81.89
7180;BME280;3631;42.152;24.756;2023-03-12T04:10:40;98584.06;;;6.46;81.96
7180;BME280;3631;42.152;24.756;2023-03-12T04:13:07;98613.28;;;6.45;77.17
7180;BME280;3631;42.152;24.756;2023-03-12T04:15:34;98611.69;;;6.41;76.81
7180;BME280;3631;42.152;24.756;2023-03-12T04:18:01;98616.97;;;6.37;77.08
7180;BME280;3631;42.152;24.756;2023-03-12T04:20:28;98616.19;;;6.33;76.94
7180;BME280;3631;42.152;24.756;2023-03-12T04:22:55;98627.31;;;6.35;76.66
7180;BME280;3631;42.152;24.756;2023-03-12T04:25:22;98634.09;;;6.39;76.60
7180;BME280;3631;42.152;24.756;2023-03-12T04:27:51;98628.78;;;6.44;76.41
7180;BME280;3631;42.152;24.756;2023-03-12T04:30:18;98633.84;;;6.48;76.65
7180;BME280;3631;42.152;24.756;2023-03-12T04:32:45;98627.69;;;6.54;75.64
7180;BME280;3631;42.152;24.756;2023-03-12T04:35:12;98633.69;;;6.54;75.48
7180;BME280;3631;42.152;24.756;2023-03-12T04:37:40;98631.00;;;6.57;74.08
7180;BME280;3631;42.152;24.756;2023-03-12T04:40:09;98625.81;;;6.59;73.00
7180;BME280;3631;42.152;24.756;2023-03-12T04:42:36;98638.59;;;6.64;72.89
7180;BME280;3631;42.152;24.756;2023-03-12T04:45:06;98640.19;;;6.68;73.08
7180;BME280;3631;42.152;24.756;2023-03-12T04:47:33;98645.44;;;6.65;73.31
7180;BME280;3631;42.152;24.756;2023-03-12T04:50:00;98655.66;;;6.68;72.38
7180;BME280;3631;42.152;24.756;2023-03-12T04:52:27;98659.75;;;6.76;72.77
7180;BME280;3631;42.152;24.756;2023-03-12T04:54:55;98664.06;;;6.76;73.00
7180;BME280;3631;42.152;24.756;2023-03-12T04:57:23;98663.19;;;6.75;72.31
7180;BME280;3631;42.152;24.756;2023-03-12T04:59:50;98677.59;;;6.82;73.09
7180;BME280;3631;42.152;24.756;2023-03-12T05:02:19;98685.31;;;6.84;72.34
7180;BME280;3631;42.152;24.756;2023-03-12T05:04:46;98678.41;;;6.84;72.71
7180;BME280;3631;42.152;24.756;2023-03-12T05:07:13;98677.25;;;6.96;72.75
7180;BME280;3631;42.152;24.756;2023-03-12T05:09:39;98692.28;;;7.11;72.55
7180;BME280;3631;42.152;24.756;2023-03-12T05:12:08;98701.59;;;7.17;71.50
7180;BME280;3631;42.152;24.756;2023-03-12T05:14:35;98712.69;;;7.20;71.32
7180;BME280;3631;42.152;24.756;2023-03-12T05:17:03;98710.72;;;7.28;71.94
7180;BME280;3631;42.152;24.756;2023-03-12T05:19:32;98714.00;;;7.34;71.94
7180;BME280;3631;42.152;24.756;2023-03-12T05:21:59;98726.03;;;7.35;71.23
7180;BME280;3631;42.152;24.756;2023-03-12T05:24:26;98720.78;;;7.38;71.09
7180;BME280;3631;42.152;24.756;2023-03-12T05:26:53;98724.16;;;7.40;71.00
7180;BME280;3631;42.152;24.756;2023-03-12T05:29:20;98729.34;;;7.40;71.50
7180;BME280;3631;42.152;24.756;2023-03-12T05:31:47;98733.47;;;7.45;70.33
7180;BME280;3631;42.152;24.756;2023-03-12T05:34:15;98718.78;;;7.77;70.26
7180;BME280;3631;42.152;24.756;2023-03-12T05:36:43;98727.41;;;8.58;68.24
7180;BME280;3631;42.152;24.756;2023-03-12T05:39:10;98732.81;;;9.71;63.17
7180;BME280;3631;42.152;24.756;2023-03-12T05:41:37;98731.13;;;10.59;59.67
7180;BME280;3631;42.152;24.756;2023-03-12T05:44:04;98740.28;;;11.66;55.10
7180;BME280;3631;42.152;24.756;2023-03-12T05:46:31;98734.97;;;12.77;50.78
7180;BME280;3631;42.152;24.756;2023-03-12T05:48:58;98745.47;;;13.92;46.38
7180;BME280;3631;42.152;24.756;2023-03-12T05:51:25;98754.53;;;14.63;42.91
7180;BME280;3631;42.152;24.756;2023-03-12T05:53:53;98752.16;;;15.18;41.56
7180;BME280;3631;42.152;24.756;2023-03-12T05:56:20;98768.72;;;15.90;38.49
7180;BME280;3631;42.152;24.756;2023-03-12T05:58:47;98769.13;;;16.25;37.63
7180;BME280;3631;42.152;24.756;2023-03-12T06:01:17;98767.13;;;16.82;36.81
7180;BME280;3631;42.152;24.756;2023-03-12T06:03:44;98779.69;;;17.29;35.63
7180;BME280;3631;42.152;24.756;2023-03-12T06:06:11;98778.28;;;18.00;34.22
7180;BME280;3631;42.152;24.756;2023-03-12T06:08:39;98790.31;;;18.75;32.58
7180;BME280;3631;42.152;24.756;2023-03-12T06:11:08;98796.94;;;19.51;31.78
7180;BME280;3631;42.152;24.756;2023-03-12T06:13:36;98815.66;;;19.46;31.12
7180;BME280;3631;42.152;24.756;2023-03-12T06:16:04;98807.34;;;19.17;31.59
7180;BME280;3631;42.152;24.756;2023-03-12T06:18:31;98806.44;;;18.95;31.86
7180;BME280;3631;42.152;24.756;2023-03-12T06:21:12;98813.66;;;19.04;31.73
7180;BME280;3631;42.152;24.756;2023-03-12T06:23:40;98823.72;;;19.21;31.17
7180;BME280;3631;42.152;24.756;2023-03-12T06:26:10;98832.03;;;19.74;29.98
7180;BME280;3631;42.152;24.756;2023-03-12T06:28:37;98841.84;;;19.83;29.89
7180;BME280;3631;42.152;24.756;2023-03-12T06:31:05;98829.16;;;21.19;27.78
7180;BME280;3631;42.152;24.756;2023-03-12T06:33:32;98832.88;;;21.58;27.04
7180;BME280;3631;42.152;24.756;2023-03-12T06:36:00;98847.75;;;21.38;27.08
7180;BME280;3631;42.152;24.756;2023-03-12T06:38:28;98853.28;;;21.35;26.05
7180;BME280;3631;42.152;24.756;2023-03-12T06:40:57;98847.63;;;21.40;26.01
7180;BME280;3631;42.152;24.756;2023-03-12T06:43:27;98848.41;;;21.51;25.68
7180;BME280;3631;42.152;24.756;2023-03-12T06:45:55;98868.88;;;21.38;25.29
7180;BME280;3631;42.152;24.756;2023-03-12T06:48:23;98866.84;;;21.62;25.02
7180;BME280;3631;42.152;24.756;2023-03-12T06:50:51;98868.94;;;21.89;24.87
7180;BME280;3631;42.152;24.756;2023-03-12T06:53:19;98862.50;;;22.33;24.52
7180;BME280;3631;42.152;24.756;2023-03-12T06:55:47;98866.47;;;22.18;23.82
7180;BME280;3631;42.152;24.756;2023-03-12T06:58:15;98883.38;;;22.46;23.78
7180;BME280;3631;42.152;24.756;2023-03-12T07:00:43;98893.97;;;23.15;23.49
7180;BME280;3631;42.152;24.756;2023-03-12T07:03:10;98879.63;;;22.98;22.96
7180;BME280;3631;42.152;24.756;2023-03-12T07:05:37;98901.78;;;22.97;23.25
7180;BME280;3631;42.152;24.756;2023-03-12T07:08:04;98891.88;;;23.76;22.67
7180;BME280;3631;42.152;24.756;2023-03-12T07:10:31;98897.31;;;23.75;22.47
7180;BME280;3631;42.152;24.756;2023-03-12T07:12:58;98902.09;;;23.33;22.32
7180;BME280;3631;42.152;24.756;2023-03-12T07:15:25;98899.94;;;23.94;22.14
7180;BME280;3631;42.152;24.756;2023-03-12T07:17:53;98919.69;;;24.19;21.73
7180;BME280;3631;42.152;24.756;2023-03-12T07:20:20;98899.59;;;24.26;21.51
7180;BME280;3631;42.152;24.756;2023-03-12T07:22:47;98919.63;;;25.03;21.23
7180;BME280;3631;42.152;24.756;2023-03-12T07:25:14;98908.63;;;24.60;21.57
7180;BME280;3631;42.152;24.756;2023-03-12T07:27:41;98916.44;;;24.89;21.40
7180;BME280;3631;42.152;24.756;2023-03-12T07:30:09;98887.34;;;24.98;20.67
7180;BME280;3631;42.152;24.756;2023-03-12T07:32:36;98909.06;;;24.19;20.99
7180;BME280;3631;42.152;24.756;2023-03-12T07:35:06;98885.19;;;21.85;23.38
7180;BME280;3631;42.152;24.756;2023-03-12T07:37:33;98889.16;;;20.18;24.41
7180;BME280;3631;42.152;24.756;2023-03-12T07:39:59;98876.59;;;17.96;26.76
7180;BME280;3631;42.152;24.756;2023-03-12T07:42:27;98882.28;;;16.02;29.70
7180;BME280;3631;42.152;24.756;2023-03-12T07:44:54;98877.38;;;15.07;31.12
7180;BME280;3631;42.152;24.756;2023-03-12T07:47:21;98866.31;;;14.57;31.94
7180;BME280;3631;42.152;24.756;2023-03-12T07:49:48;98860.59;;;14.01;32.70
7180;BME280;3631;42.152;24.756;2023-03-12T07:52:18;98885.09;;;13.49;33.66
7180;BME280;3631;42.152;24.756;2023-03-12T07:54:45;98888.13;;;13.05;34.20
7180;BME280;3631;42.152;24.756;2023-03-12T07:57:12;98876.72;;;13.07;37.96
7180;BME280;3631;42.152;24.756;2023-03-12T07:59:39;98873.03;;;13.12;35.76
7180;BME280;3631;42.152;24.756;2023-03-12T08:02:08;98885.38;;;12.72;35.52
7180;BME280;3631;42.152;24.756;2023-03-12T08:04:35;98887.72;;;12.59;36.28
7180;BME280;3631;42.152;24.756;2023-03-12T08:07:02;98895.53;;;12.59;36.16
7180;BME280;3631;42.152;24.756;2023-03-12T08:09:31;98886.31;;;12.71;37.01
7180;BME280;3631;42.152;24.756;2023-03-12T08:11:59;98909.56;;;12.93;38.77
7180;BME280;3631;42.152;24.756;2023-03-12T08:14:25;98917.81;;;12.84;37.86
7180;BME280;3631;42.152;24.756;2023-03-12T08:16:56;98930.13;;;12.80;35.51
7180;BME280;3631;42.152;24.756;2023-03-12T08:19:23;98920.66;;;12.60;35.88
7180;BME280;3631;42.152;24.756;2023-03-12T08:21:50;98924.94;;;12.61;36.47
7180;BME280;3631;42.152;24.756;2023-03-12T08:24:18;98913.81;;;12.58;36.41
7180;BME280;3631;42.152;24.756;2023-03-12T08:26:46;98908.31;;;12.83;35.98
7180;BME280;3631;42.152;24.756;2023-03-12T08:29:13;98901.34;;;13.00;35.54
7180;BME280;3631;42.152;24.756;2023-03-12T08:31:40;98900.38;;;13.03;35.45
7180;BME280;3631;42.152;24.756;2023-03-12T08:34:07;98877.06;;;12.83;35.78
7180;BME280;3631;42.152;24.756;2023-03-12T08:36:34;98868.91;;;12.71;36.17
7180;BME280;3631;42.152;24.756;2023-03-12T08:39:02;98849.38;;;12.44;36.56
7180;BME280;3631;42.152;24.756;2023-03-12T08:41:28;98854.84;;;12.57;35.89
7180;BME280;3631;42.152;24.756;2023-03-12T08:43:57;98854.59;;;12.63;35.95
7180;BME280;3631;42.152;24.756;2023-03-12T08:46:24;98859.59;;;12.49;34.45
7180;BME280;3631;42.152;24.756;2023-03-12T08:48:51;98878.72;;;12.48;34.35
7180;BME280;3631;42.152;24.756;2023-03-12T08:51:18;98887.44;;;12.47;35.07
7180;BME280;3631;42.152;24.756;2023-03-12T08:53:45;98900.81;;;12.58;35.98
7180;BME280;3631;42.152;24.756;2023-03-12T08:56:11;98913.09;;;12.54;36.05
7180;BME280;3631;42.152;24.756;2023-03-12T08:58:39;98908.69;;;12.56;34.90
7180;BME280;3631;42.152;24.756;2023-03-12T09:01:09;98909.88;;;12.49;33.94
7180;BME280;3631;42.152;24.756;2023-03-12T09:03:37;98916.38;;;12.41;33.25
7180;BME280;3631;42.152;24.756;2023-03-12T09:06:07;98927.03;;;12.34;33.66
7180;BME280;3631;42.152;24.756;2023-03-12T09:08:37;98910.28;;;12.21;33.18
7180;BME280;3631;42.152;24.756;2023-03-12T09:11:05;98908.03;;;12.14;33.98
7180;BME280;3631;42.152;24.756;2023-03-12T09:13:32;98897.22;;;12.04;35.52
7180;BME280;3631;42.152;24.756;2023-03-12T09:15:59;98891.69;;;11.91;36.29
7180;BME280;3631;42.152;24.756;2023-03-12T09:18:28;98882.69;;;11.80;35.95
7180;BME280;3631;42.152;24.756;2023-03-12T09:20:56;98895.00;;;11.75;35.68
7180;BME280;3631;42.152;24.756;2023-03-12T09:23:23;98893.81;;;11.83;35.79
7180;BME280;3631;42.152;24.756;2023-03-12T09:25:50;98902.94;;;11.92;35.57
7180;BME280;3631;42.152;24.756;2023-03-12T09:28:18;98895.41;;;11.86;35.60
7180;BME280;3631;42.152;24.756;2023-03-12T09:30:45;98884.88;;;11.89;36.26
7180;BME280;3631;42.152;24.756;2023-03-12T09:33:12;98892.97;;;12.02;36.50
7180;BME280;3631;42.152;24.756;2023-03-12T09:35:42;98898.06;;;12.23;36.82
7180;BME280;3631;42.152;24.756;2023-03-12T09:38:12;98908.59;;;12.20;36.20
7180;BME280;3631;42.152;24.756;2023-03-12T09:40:40;98889.47;;;12.21;35.55
7180;BME280;3631;42.152;24.756;2023-03-12T09:43:14;98905.44;;;12.14;36.24
7180;BME280;3631;42.152;24.756;2023-03-12T09:45:46;98927.47;;;12.25;35.62
7180;BME280;3631;42.152;24.756;2023-03-12T09:48:16;98912.97;;;12.20;35.89
7180;BME280;3631;42.152;24.756;2023-03-12T09:50:47;98924.97;;;12.04;35.97
7180;BME280;3631;42.152;24.756;2023-03-12T09:53:21;98927.53;;;11.85;36.60
7180;BME280;3631;42.152;24.756;2023-03-12T09:55:52;98931.69;;;11.89;37.26
7180;BME280;3631;42.152;24.756;2023-03-12T09:58:25;98929.09;;;12.08;37.63
7180;BME280;3631;42.152;24.756;2023-03-12T10:00:56;98929.50;;;12.19;37.82
7180;BME280;3631;42.152;24.756;2023-03-12T10:03:45;98927.81;;;12.36;36.77
7180;BME280;3631;42.152;24.756;2023-03-12T10:06:17;98935.47;;;12.21;36.47
7180;BME280;3631;42.152;24.756;2023-03-12T10:08:53;98930.59;;;12.13;36.32
7180;BME280;3631;42.152;24.756;2023-03-12T10:11:34;98930.25;;;12.02;36.06
7180;BME280;3631;42.152;24.756;2023-03-12T10:14:13;98919.84;;;12.02;37.65
7180;BME280;3631;42.152;24.756;2023-03-12T10:16:52;98936.78;;;12.11;37.32
7180;BME280;3631;42.152;24.756;2023-03-12T10:19:31;98938.03;;;12.02;36.96
7180;BME280;3631;42.152;24.756;2023-03-12T10:22:06;98935.56;;;11.99;36.23
7180;BME280;3631;42.152;24.756;2023-03-12T10:24:48;98932.78;;;12.04;37.09
7180;BME280;3631;42.152;24.756;2023-03-12T10:27:19;98929.09;;;12.08;37.68
7180;BME280;3631;42.152;24.756;2023-03-12T10:29:49;98934.91;;;12.14;37.97
7180;BME280;3631;42.152;24.756;2023-03-12T10:32:21;98940.00;;;12.36;40.08
7180;BME280;3631;42.152;24.756;2023-03-12T10:34:51;98940.22;;;12.50;38.74
7180;BME280;3631;42.152;24.756;2023-03-12T10:37:24;98955.16;;;12.26;39.52
7180;BME280;3631;42.152;24.756;2023-03-12T10:39:52;98955.09;;;12.28;39.97
7180;BME280;3631;42.152;24.756;2023-03-12T10:42:21;98952.25;;;12.14;38.30
7180;BME280;3631;42.152;24.756;2023-03-12T10:44:51;98933.56;;;12.06;38.89
7180;BME280;3631;42.152;24.756;2023-03-12T10:47:32;98959.47;;;12.27;38.93
7180;BME280;3631;42.152;24.756;2023-03-12T10:50:15;98946.88;;;12.18;37.90
7180;BME280;3631;42.152;24.756;2023-03-12T10:52:45;98952.63;;;12.44;38.54
7180;BME280;3631;42.152;24.756;2023-03-12T10:55:20;98957.03;;;12.62;37.39
7180;BME280;3631;42.152;24.756;2023-03-12T10:57:47;98948.44;;;12.60;36.94
7180;BME280;3631;42.152;24.756;2023-03-12T11:00:20;98944.94;;;12.61;37.42
7180;BME280;3631;42.152;24.756;2023-03-12T11:02:55;98934.22;;;12.48;37.86
7180;BME280;3631;42.152;24.756;2023-03-12T11:05:25;98933.16;;;12.33;38.05
7180;BME280;3631;42.152;24.756;2023-03-12T11:07:54;98935.34;;;12.43;37.28
7180;BME280;3631;42.152;24.756;2023-03-12T11:10:23;98941.38;;;12.43;37.42
7180;BME280;3631;42.152;24.756;2023-03-12T11:13:02;98936.03;;;12.65;37.22
7180;BME280;3631;42.152;24.756;2023-03-12T11:15:37;98940.16;;;12.88;36.77
7180;BME280;3631;42.152;24.756;2023-03-12T11:18:20;98942.03;;;12.86;35.90
7180;BME280;3631;42.152;24.756;2023-03-12T11:20:53;98937.66;;;12.86;35.87
7180;BME280;3631;42.152;24.756;2023-03-12T11:24:07;98934.41;;;12.81;36.33
7180;BME280;3631;42.152;24.756;2023-03-12T11:26:50;98938.84;;;12.79;36.17
7180;BME280;3631;42.152;24.756;2023-03-12T11:29:28;98930.44;;;12.74;37.02
7180;BME280;3631;42.152;24.756;2023-03-12T11:32:02;98939.94;;;12.75;36.87
7180;BME280;3631;42.152;24.756;2023-03-12T11:34:34;98931.00;;;12.62;36.55
7180;BME280;3631;42.152;24.756;2023-03-12T11:37:07;98926.28;;;12.51;36.76
7180;BME280;3631;42.152;24.756;2023-03-12T11:39:48;98929.38;;;12.59;37.28
7180;BME280;3631;42.152;24.756;2023-03-12T11:42:26;98943.84;;;12.65;37.63
7180;BME280;3631;42.152;24.756;2023-03-12T11:45:05;98930.22;;;12.60;36.75
7180;BME280;3631;42.152;24.756;2023-03-12T11:47:53;98934.72;;;12.56;36.43
7180;BME280;3631;42.152;24.756;2023-03-12T11:50:30;98922.53;;;12.57;36.42
7180;BME280;3631;42.152;24.756;2023-03-12T11:53:35;98914.38;;;12.46;36.89
7180;BME280;3631;42.152;24.756;2023-03-12T11:56:19;98918.25;;;12.37;37.64
7180;BME280;3631;42.152;24.756;2023-03-12T11:59:00;98911.97;;;12.22;37.71
7180;BME280;3631;42.152;24.756;2023-03-12T12:01:38;98910.09;;;12.26;37.87
7180;BME280;3631;42.152;24.756;2023-03-12T12:07:32;98921.91;;;12.14;36.83
7180;BME280;3631;42.152;24.756;2023-03-12T12:10:05;98929.50;;;12.19;36.36
7180;BME280;3631;42.152;24.756;2023-03-12T12:12:46;98922.69;;;12.16;37.29
7180;BME280;3631;42.152;24.756;2023-03-12T12:15:22;98921.59;;;12.20;37.03
7180;BME280;3631;42.152;24.756;2023-03-12T12:18:03;98933.09;;;12.16;36.94
7180;BME280;3631;42.152;24.756;2023-03-12T12:20:38;98927.72;;;12.19;36.86
7180;BME280;3631;42.152;24.756;2023-03-12T12:23:14;98904.53;;;12.15;36.91
7180;BME280;3631;42.152;24.756;2023-03-12T12:25:51;98927.34;;;12.28;37.23
7180;BME280;3631;42.152;24.756;2023-03-12T12:31:39;98918.63;;;12.29;36.14
7180;BME280;3631;42.152;24.756;2023-03-12T12:37:39;98904.53;;;12.33;36.77
7180;BME280;3631;42.152;24.756;2023-03-12T12:40:16;98922.56;;;12.38;37.22
7180;BME280;3631;42.152;24.756;2023-03-12T12:42:52;98918.97;;;12.41;37.36
7180;BME280;3631;42.152;24.756;2023-03-12T12:45:23;98912.00;;;12.41;37.27
7180;BME280;3631;42.152;24.756;2023-03-12T12:47:55;98923.09;;;12.45;36.94
7180;BME280;3631;42.152;24.756;2023-03-12T12:50:26;98934.34;;;12.45;36.48
7180;BME280;3631;42.152;24.756;2023-03-12T12:53:02;98933.56;;;12.43;35.33
7180;BME280;3631;42.152;24.756;2023-03-12T12:55:34;98933.38;;;12.48;35.49
7180;BME280;3631;42.152;24.756;2023-03-12T12:58:11;98933.25;;;12.51;36.13
7180;BME280;3631;42.152;24.756;2023-03-12T13:00:46;98928.97;;;12.50;36.10
7180;BME280;3631;42.152;24.756;2023-03-12T13:03:16;98926.41;;;12.48;35.58
7180;BME280;3631;42.152;24.756;2023-03-12T13:05:47;98921.16;;;12.50;35.25
7180;BME280;3631;42.152;24.756;2023-03-12T13:11:26;98929.31;;;12.61;35.15
7180;BME280;3631;42.152;24.756;2023-03-12T13:17:23;98930.34;;;12.57;35.06
7180;BME280;3631;42.152;24.756;2023-03-12T13:19:53;98932.81;;;12.60;34.45
7180;BME280;3631;42.152;24.756;2023-03-12T13:22:33;98943.09;;;12.63;34.43
7180;BME280;3631;42.152;24.756;2023-03-12T13:25:17;98941.53;;;12.59;34.07
7180;BME280;3631;42.152;24.756;2023-03-12T13:27:56;98941.81;;;12.53;34.56
7180;BME280;3631;42.152;24.756;2023-03-12T13:30:47;98946.44;;;12.65;34.86
7180;BME280;3631;42.152;24.756;2023-03-12T13:33:17;98947.09;;;12.70;35.02
7180;BME280;3631;42.152;24.756;2023-03-12T13:36:04;98942.19;;;12.64;35.30
7180;BME280;3631;42.152;24.756;2023-03-12T13:38:37;98953.34;;;12.66;35.46
7180;BME280;3631;42.152;24.756;2023-03-12T13:41:06;98944.84;;;12.62;35.70
7180;BME280;3631;42.152;24.756;2023-03-12T13:43:53;98944.16;;;12.59;35.56
7180;BME280;3631;42.152;24.756;2023-03-12T13:46:43;98950.63;;;12.69;35.20